sensor_id;sensor_type;location;lat;lon;timestamp;temperature;humidity
9919;DHT22;4998;51.024;13.828;2022-10-10T00:01:14;13.70;70.70
9919;DHT22;4998;51.024;13.828;2022-10-10T00:03:42;13.70;70.70
9919;DHT22;4998;51.024;13.828;2022-10-10T00:06:10;13.70;70.60
9919;DHT22;4998;51.024;13.828;2022-10-10T00:08:38;13.70;70.60
9919;DHT22;4998;51.024;13.828;2022-10-10T00:11:05;13.70;70.50
9919;DHT22;4998;51.024;13.828;2022-10-10T00:13:33;13.70;70.40
9919;DHT22;4998;51.024;13.828;2022-10-10T00:16:00;13.70;70.40
9919;DHT22;4998;51.024;13.828;2022-10-10T00:18:27;13.70;70.40
9919;DHT22;4998;51.024;13.828;2022-10-10T00:20:56;13.70;70.20
9919;DHT22;4998;51.024;13.828;2022-10-10T00:23:23;13.70;70.10
9919;DHT22;4998;51.024;13.828;2022-10-10T00:25:50;13.70;70.10
9919;DHT22;4998;51.024;13.828;2022-10-10T00:28:17;13.70;70.10
9919;DHT22;4998;51.024;13.828;2022-10-10T00:30:44;13.70;70.00
9919;DHT22;4998;51.024;13.828;2022-10-10T00:33:12;13.70;70.00
9919;DHT22;4998;51.024;13.828;2022-10-10T00:35:39;13.70;69.90
9919;DHT22;4998;51.024;13.828;2022-10-10T00:38:08;13.70;69.80
9919;DHT22;4998;51.024;13.828;2022-10-10T00:40:42;13.70;69.80
9919;DHT22;4998;51.024;13.828;2022-10-10T00:43:11;13.70;69.80
9919;DHT22;4998;51.024;13.828;2022-10-10T00:45:41;13.70;69.70
9919;DHT22;4998;51.024;13.828;2022-10-10T00:48:11;13.70;69.60
9919;DHT22;4998;51.024;13.828;2022-10-10T00:50:43;13.70;69.50
9919;DHT22;4998;51.024;13.828;2022-10-10T00:53:15;13.70;69.40
9919;DHT22;4998;51.024;13.828;2022-10-10T00:55:42;13.70;69.40
9919;DHT22;4998;51.024;13.828;2022-10-10T00:58:10;13.70;69.30
9919;DHT22;4998;51.024;13.828;2022-10-10T01:00:38;13.70;69.30
9919;DHT22;4998;51.024;13.828;2022-10-10T01:03:04;13.70;69.10
9919;DHT22;4998;51.024;13.828;2022-10-10T01:05:32;13.70;69.20
9919;DHT22;4998;51.024;13.828;2022-10-10T01:08:01;13.60;69.10
9919;DHT22;4998;51.024;13.828;2022-10-10T01:10:31;13.60;69.00
9919;DHT22;4998;51.024;13.828;2022-10-10T01:13:09;13.60;69.10
9919;DHT22;4998;51.024;13.828;2022-10-10T01:15:47;13.60;69.10
9919;DHT22;4998;51.024;13.828;2022-10-10T01:18:21;13.60;69.10
9919;DHT22;4998;51.024;13.828;2022-10-10T01:21:02;13.60;69.20
9919;DHT22;4998;51.024;13.828;2022-10-10T01:24:13;13.60;69.30
9919;DHT22;4998;51.024;13.828;2022-10-10T01:29:46;13.50;69.00
9919;DHT22;4998;51.024;13.828;2022-10-10T01:32:17;13.50;69.10
9919;DHT22;4998;51.024;13.828;2022-10-10T01:34:53;13.50;68.90
9919;DHT22;4998;51.024;13.828;2022-10-10T01:37:28;13.50;69.00
9919;DHT22;4998;51.024;13.828;2022-10-10T01:40:03;13.50;69.00
9919;DHT22;4998;51.024;13.828;2022-10-10T01:42:37;13.50;68.90
9919;DHT22;4998;51.024;13.828;2022-10-10T01:45:08;13.50;68.90
9919;DHT22;4998;51.024;13.828;2022-10-10T01:47:35;13.50;68.80
9919;DHT22;4998;51.024;13.828;2022-10-10T01:50:05;13.50;68.90
9919;DHT22;4998;51.024;13.828;2022-10-10T01:52:41;13.50;68.80
9919;DHT22;4998;51.024;13.828;2022-10-10T01:55:27;13.50;68.60
9919;DHT22;4998;51.024;13.828;2022-10-10T01:58:06;13.60;68.80
9919;DHT22;4998;51.024;13.828;2022-10-10T02:00:44;13.50;68.70
9919;DHT22;4998;51.024;13.828;2022-10-10T02:03:15;13.60;68.70
9919;DHT22;4998;51.024;13.828;2022-10-10T02:05:45;13.60;68.70
9919;DHT22;4998;51.024;13.828;2022-10-10T02:08:17;13.60;68.60
9919;DHT22;4998;51.024;13.828;2022-10-10T02:10:48;13.60;68.60
9919;DHT22;4998;51.024;13.828;2022-10-10T02:13:17;13.60;68.50
9919;DHT22;4998;51.024;13.828;2022-10-10T02:15:50;13.60;68.60
9919;DHT22;4998;51.024;13.828;2022-10-10T02:18:20;13.60;68.40
9919;DHT22;4998;51.024;13.828;2022-10-10T02:20:50;13.60;68.30
9919;DHT22;4998;51.024;13.828;2022-10-10T02:23:20;13.60;68.30
9919;DHT22;4998;51.024;13.828;2022-10-10T02:25:51;13.60;68.30
9919;DHT22;4998;51.024;13.828;2022-10-10T02:28:22;13.60;68.30
9919;DHT22;4998;51.024;13.828;2022-10-10T02:30:54;13.60;68.30
9919;DHT22;4998;51.024;13.828;2022-10-10T02:33:26;13.50;68.20
9919;DHT22;4998;51.024;13.828;2022-10-10T02:35:54;13.50;68.30
9919;DHT22;4998;51.024;13.828;2022-10-10T02:38:21;13.50;68.40
9919;DHT22;4998;51.024;13.828;2022-10-10T02:40:49;13.50;68.40
9919;DHT22;4998;51.024;13.828;2022-10-10T02:43:17;13.50;68.50
9919;DHT22;4998;51.024;13.828;2022-10-10T02:45:45;13.50;69.30
9919;DHT22;4998;51.024;13.828;2022-10-10T02:48:13;13.50;68.40
9919;DHT22;4998;51.024;13.828;2022-10-10T02:50:40;13.50;68.30
9919;DHT22;4998;51.024;13.828;2022-10-10T02:53:08;13.50;68.40
9919;DHT22;4998;51.024;13.828;2022-10-10T02:55:35;13.50;68.40
9919;DHT22;4998;51.024;13.828;2022-10-10T02:58:02;13.50;68.50
9919;DHT22;4998;51.024;13.828;2022-10-10T03:00:29;13.50;68.50
9919;DHT22;4998;51.024;13.828;2022-10-10T03:02:56;13.50;68.50
9919;DHT22;4998;51.024;13.828;2022-10-10T03:05:24;13.50;68.50
9919;DHT22;4998;51.024;13.828;2022-10-10T03:07:51;13.50;68.50
9919;DHT22;4998;51.024;13.828;2022-10-10T03:10:17;13.50;68.50
9919;DHT22;4998;51.024;13.828;2022-10-10T03:12:44;13.50;68.50
9919;DHT22;4998;51.024;13.828;2022-10-10T03:15:11;13.50;68.40
9919;DHT22;4998;51.024;13.828;2022-10-10T03:17:38;13.50;68.40
9919;DHT22;4998;51.024;13.828;2022-10-10T03:20:06;13.60;68.60
9919;DHT22;4998;51.024;13.828;2022-10-10T03:22:34;13.50;68.50
9919;DHT22;4998;51.024;13.828;2022-10-10T03:25:02;13.50;68.30
9919;DHT22;4998;51.024;13.828;2022-10-10T03:27:28;13.50;68.40
9919;DHT22;4998;51.024;13.828;2022-10-10T03:29:55;13.50;68.40
9919;DHT22;4998;51.024;13.828;2022-10-10T03:32:22;13.50;68.40
9919;DHT22;4998;51.024;13.828;2022-10-10T03:34:49;13.50;68.50
9919;DHT22;4998;51.024;13.828;2022-10-10T03:37:16;13.50;68.50
9919;DHT22;4998;51.024;13.828;2022-10-10T03:39:44;13.50;68.60
9919;DHT22;4998;51.024;13.828;2022-10-10T03:42:11;13.50;68.40
9919;DHT22;4998;51.024;13.828;2022-10-10T03:44:38;13.50;68.50
9919;DHT22;4998;51.024;13.828;2022-10-10T03:47:04;13.50;68.40
9919;DHT22;4998;51.024;13.828;2022-10-10T03:49:31;13.50;68.40
9919;DHT22;4998;51.024;13.828;2022-10-10T03:51:58;13.50;68.50
9919;DHT22;4998;51.024;13.828;2022-10-10T03:54:26;13.50;68.50
9919;DHT22;4998;51.024;13.828;2022-10-10T03:56:54;13.50;68.50
9919;DHT22;4998;51.024;13.828;2022-10-10T03:59:21;13.50;68.40
9919;DHT22;4998;51.024;13.828;2022-10-10T04:01:48;13.40;68.20
9919;DHT22;4998;51.024;13.828;2022-10-10T04:04:15;13.50;68.40
9919;DHT22;4998;51.024;13.828;2022-10-10T04:06:41;13.40;68.20
9919;DHT22;4998;51.024;13.828;2022-10-10T04:09:08;13.40;68.30
9919;DHT22;4998;51.024;13.828;2022-10-10T04:11:35;13.40;68.40
9919;DHT22;4998;51.024;13.828;2022-10-10T04:14:04;13.40;68.40
9919;DHT22;4998;51.024;13.828;2022-10-10T04:16:31;13.40;68.40
9919;DHT22;4998;51.024;13.828;2022-10-10T04:18:58;13.40;68.40
9919;DHT22;4998;51.024;13.828;2022-10-10T04:21:25;13.50;68.50
9919;DHT22;4998;51.024;13.828;2022-10-10T04:23:52;13.40;68.40
9919;DHT22;4998;51.024;13.828;2022-10-10T04:26:19;13.50;68.50
9919;DHT22;4998;51.024;13.828;2022-10-10T04:28:45;13.50;68.50
9919;DHT22;4998;51.024;13.828;2022-10-10T04:31:14;13.40;68.40
9919;DHT22;4998;51.024;13.828;2022-10-10T04:33:41;13.50;68.50
9919;DHT22;4998;51.024;13.828;2022-10-10T04:36:07;13.40;68.40
9919;DHT22;4998;51.024;13.828;2022-10-10T04:38:34;13.50;68.60
9919;DHT22;4998;51.024;13.828;2022-10-10T04:41:01;13.50;68.60
9919;DHT22;4998;51.024;13.828;2022-10-10T04:43:28;13.50;68.60
9919;DHT22;4998;51.024;13.828;2022-10-10T04:45:55;13.50;69.50
9919;DHT22;4998;51.024;13.828;2022-10-10T04:48:24;13.50;69.50
9919;DHT22;4998;51.024;13.828;2022-10-10T04:50:51;13.50;68.50
9919;DHT22;4998;51.024;13.828;2022-10-10T04:53:18;13.50;68.60
9919;DHT22;4998;51.024;13.828;2022-10-10T04:55:45;13.50;68.50
9919;DHT22;4998;51.024;13.828;2022-10-10T04:58:12;13.50;68.50
9919;DHT22;4998;51.024;13.828;2022-10-10T05:00:39;13.50;68.40
9919;DHT22;4998;51.024;13.828;2022-10-10T05:03:07;13.50;68.40
9919;DHT22;4998;51.024;13.828;2022-10-10T05:05:37;13.50;68.40
9919;DHT22;4998;51.024;13.828;2022-10-10T05:08:05;13.60;68.50
9919;DHT22;4998;51.024;13.828;2022-10-10T05:10:35;13.60;68.50
9919;DHT22;4998;51.024;13.828;2022-10-10T05:13:03;13.60;68.30
9919;DHT22;4998;51.024;13.828;2022-10-10T05:15:33;13.60;68.40
9919;DHT22;4998;51.024;13.828;2022-10-10T05:17:59;13.60;68.40
9919;DHT22;4998;51.024;13.828;2022-10-10T05:20:26;13.60;68.30
9919;DHT22;4998;51.024;13.828;2022-10-10T05:22:55;13.60;68.30
9919;DHT22;4998;51.024;13.828;2022-10-10T05:25:22;13.60;68.30
9919;DHT22;4998;51.024;13.828;2022-10-10T05:27:49;13.60;68.30
9919;DHT22;4998;51.024;13.828;2022-10-10T05:30:16;13.60;68.30
9919;DHT22;4998;51.024;13.828;2022-10-10T05:32:43;13.60;68.40
9919;DHT22;4998;51.024;13.828;2022-10-10T05:35:10;13.60;68.40
9919;DHT22;4998;51.024;13.828;2022-10-10T05:37:36;13.60;68.40
9919;DHT22;4998;51.024;13.828;2022-10-10T05:40:06;13.60;68.40
9919;DHT22;4998;51.024;13.828;2022-10-10T05:42:33;13.60;68.40
9919;DHT22;4998;51.024;13.828;2022-10-10T05:45:00;13.60;68.40
9919;DHT22;4998;51.024;13.828;2022-10-10T05:47:27;13.60;68.30
9919;DHT22;4998;51.024;13.828;2022-10-10T05:49:54;13.60;69.40
9919;DHT22;4998;51.024;13.828;2022-10-10T05:52:21;13.60;68.60
9919;DHT22;4998;51.024;13.828;2022-10-10T05:54:48;13.60;68.60
9919;DHT22;4998;51.024;13.828;2022-10-10T05:57:16;13.50;68.50
9919;DHT22;4998;51.024;13.828;2022-10-10T05:59:43;13.60;68.60
9919;DHT22;4998;51.024;13.828;2022-10-10T06:02:11;13.70;68.70
9919;DHT22;4998;51.024;13.828;2022-10-10T06:04:38;13.60;68.50
9919;DHT22;4998;51.024;13.828;2022-10-10T06:07:05;13.60;68.50
9919;DHT22;4998;51.024;13.828;2022-10-10T06:09:32;13.70;68.70
9919;DHT22;4998;51.024;13.828;2022-10-10T06:11:59;13.70;68.60
9919;DHT22;4998;51.024;13.828;2022-10-10T06:14:27;13.70;68.60
9919;DHT22;4998;51.024;13.828;2022-10-10T06:16:54;13.80;68.60
9919;DHT22;4998;51.024;13.828;2022-10-10T06:19:21;13.80;68.50
9919;DHT22;4998;51.024;13.828;2022-10-10T06:21:48;13.80;68.60
9919;DHT22;4998;51.024;13.828;2022-10-10T06:24:15;13.80;68.60
9919;DHT22;4998;51.024;13.828;2022-10-10T06:26:42;13.90;69.50
9919;DHT22;4998;51.024;13.828;2022-10-10T06:29:09;13.90;68.60
9919;DHT22;4998;51.024;13.828;2022-10-10T06:31:37;14.00;68.80
9919;DHT22;4998;51.024;13.828;2022-10-10T06:34:05;14.00;68.90
9919;DHT22;4998;51.024;13.828;2022-10-10T06:36:33;14.10;68.80
9919;DHT22;4998;51.024;13.828;2022-10-10T06:39:00;14.20;69.50
9919;DHT22;4998;51.024;13.828;2022-10-10T06:41:26;14.30;68.70
9919;DHT22;4998;51.024;13.828;2022-10-10T06:43:53;14.30;68.50
9919;DHT22;4998;51.024;13.828;2022-10-10T06:46:20;14.40;68.60
9919;DHT22;4998;51.024;13.828;2022-10-10T06:48:48;14.50;68.40
9919;DHT22;4998;51.024;13.828;2022-10-10T06:51:16;14.50;68.40
9919;DHT22;4998;51.024;13.828;2022-10-10T06:53:44;14.60;68.40
9919;DHT22;4998;51.024;13.828;2022-10-10T06:56:11;14.60;68.20
9919;DHT22;4998;51.024;13.828;2022-10-10T06:58:42;14.70;68.10
9919;DHT22;4998;51.024;13.828;2022-10-10T07:01:09;14.80;68.10
9919;DHT22;4998;51.024;13.828;2022-10-10T07:03:37;14.80;68.00
9919;DHT22;4998;51.024;13.828;2022-10-10T07:06:08;14.90;68.00
9919;DHT22;4998;51.024;13.828;2022-10-10T07:08:36;14.90;67.70
9919;DHT22;4998;51.024;13.828;2022-10-10T07:11:03;14.90;67.60
9919;DHT22;4998;51.024;13.828;2022-10-10T07:13:31;15.00;67.70
9919;DHT22;4998;51.024;13.828;2022-10-10T07:15:58;15.00;67.50
9919;DHT22;4998;51.024;13.828;2022-10-10T07:18:25;15.00;67.30
9919;DHT22;4998;51.024;13.828;2022-10-10T07:20:54;15.10;68.00
9919;DHT22;4998;51.024;13.828;2022-10-10T07:23:23;15.10;67.30
9919;DHT22;4998;51.024;13.828;2022-10-10T07:25:50;15.20;67.40
9919;DHT22;4998;51.024;13.828;2022-10-10T07:28:17;15.20;67.40
9919;DHT22;4998;51.024;13.828;2022-10-10T07:30:45;15.30;67.50
9919;DHT22;4998;51.024;13.828;2022-10-10T07:33:13;15.30;68.20
9919;DHT22;4998;51.024;13.828;2022-10-10T07:35:41;15.30;67.30
9919;DHT22;4998;51.024;13.828;2022-10-10T07:38:10;15.40;67.40
9919;DHT22;4998;51.024;13.828;2022-10-10T07:40:39;15.40;68.20
9919;DHT22;4998;51.024;13.828;2022-10-10T07:43:06;15.50;67.30
9919;DHT22;4998;51.024;13.828;2022-10-10T07:45:34;15.50;67.30
9919;DHT22;4998;51.024;13.828;2022-10-10T07:48:01;15.60;67.50
9919;DHT22;4998;51.024;13.828;2022-10-10T07:50:28;15.70;67.50
9919;DHT22;4998;51.024;13.828;2022-10-10T07:52:55;15.70;67.30
9919;DHT22;4998;51.024;13.828;2022-10-10T07:55:21;15.70;67.20
9919;DHT22;4998;51.024;13.828;2022-10-10T07:57:50;15.80;67.20
9919;DHT22;4998;51.024;13.828;2022-10-10T08:00:17;15.90;67.10
9919;DHT22;4998;51.024;13.828;2022-10-10T08:02:44;15.90;67.00
9919;DHT22;4998;51.024;13.828;2022-10-10T08:05:11;15.90;66.80
9919;DHT22;4998;51.024;13.828;2022-10-10T08:07:38;16.00;66.70
9919;DHT22;4998;51.024;13.828;2022-10-10T08:10:05;16.00;66.70
9919;DHT22;4998;51.024;13.828;2022-10-10T08:12:32;16.10;66.80
9919;DHT22;4998;51.024;13.828;2022-10-10T08:15:01;16.10;66.80
9919;DHT22;4998;51.024;13.828;2022-10-10T08:17:28;16.10;66.40
9919;DHT22;4998;51.024;13.828;2022-10-10T08:19:55;16.20;66.40
9919;DHT22;4998;51.024;13.828;2022-10-10T08:22:21;16.20;66.40
9919;DHT22;4998;51.024;13.828;2022-10-10T08:24:49;16.30;66.40
9919;DHT22;4998;51.024;13.828;2022-10-10T08:27:15;16.40;66.30
9919;DHT22;4998;51.024;13.828;2022-10-10T08:29:43;16.40;66.30
9919;DHT22;4998;51.024;13.828;2022-10-10T08:32:12;16.40;66.20
9919;DHT22;4998;51.024;13.828;2022-10-10T08:34:38;16.50;66.30
9919;DHT22;4998;51.024;13.828;2022-10-10T08:37:05;16.50;66.30
9919;DHT22;4998;51.024;13.828;2022-10-10T08:39:32;16.50;66.20
9919;DHT22;4998;51.024;13.828;2022-10-10T08:42:00;16.60;66.20
9919;DHT22;4998;51.024;13.828;2022-10-10T08:44:31;16.70;66.20
9919;DHT22;4998;51.024;13.828;2022-10-10T08:47:08;16.70;65.90
9919;DHT22;4998;51.024;13.828;2022-10-10T08:49:41;16.80;65.70
9919;DHT22;4998;51.024;13.828;2022-10-10T08:52:15;16.80;65.40
9919;DHT22;4998;51.024;13.828;2022-10-10T08:54:45;16.70;64.90
9919;DHT22;4998;51.024;13.828;2022-10-10T08:57:22;16.90;65.30
9919;DHT22;4998;51.024;13.828;2022-10-10T08:59:50;16.90;65.10
9919;DHT22;4998;51.024;13.828;2022-10-10T09:02:35;17.00;65.30
9919;DHT22;4998;51.024;13.828;2022-10-10T09:05:09;17.00;65.00
9919;DHT22;4998;51.024;13.828;2022-10-10T09:07:54;17.10;65.30
9919;DHT22;4998;51.024;13.828;2022-10-10T09:10:30;17.20;65.20
9919;DHT22;4998;51.024;13.828;2022-10-10T09:13:04;17.20;65.30
9919;DHT22;4998;51.024;13.828;2022-10-10T09:15:36;17.30;65.00
9919;DHT22;4998;51.024;13.828;2022-10-10T09:18:13;17.40;65.20
9919;DHT22;4998;51.024;13.828;2022-10-10T09:20:47;17.50;65.10
9919;DHT22;4998;51.024;13.828;2022-10-10T09:23:21;17.50;64.90
9919;DHT22;4998;51.024;13.828;2022-10-10T09:25:53;17.60;64.90
9919;DHT22;4998;51.024;13.828;2022-10-10T09:28:32;17.70;64.90
9919;DHT22;4998;51.024;13.828;2022-10-10T09:31:03;17.80;64.60
9919;DHT22;4998;51.024;13.828;2022-10-10T09:33:34;17.80;64.80
9919;DHT22;4998;51.024;13.828;2022-10-10T09:36:09;17.90;64.30
9919;DHT22;4998;51.024;13.828;2022-10-10T09:38:43;17.90;64.10
9919;DHT22;4998;51.024;13.828;2022-10-10T09:41:16;17.90;64.20
9919;DHT22;4998;51.024;13.828;2022-10-10T09:43:45;18.00;64.20
9919;DHT22;4998;51.024;13.828;2022-10-10T09:46:12;18.10;64.30
9919;DHT22;4998;51.024;13.828;2022-10-10T09:48:41;18.10;64.20
9919;DHT22;4998;51.024;13.828;2022-10-10T09:51:12;18.20;64.00
9919;DHT22;4998;51.024;13.828;2022-10-10T09:53:40;18.20;63.80
9919;DHT22;4998;51.024;13.828;2022-10-10T09:56:15;18.30;64.00
9919;DHT22;4998;51.024;13.828;2022-10-10T09:58:44;18.30;63.70
9919;DHT22;4998;51.024;13.828;2022-10-10T10:01:15;18.40;63.70
9919;DHT22;4998;51.024;13.828;2022-10-10T10:03:43;18.50;63.90
9919;DHT22;4998;51.024;13.828;2022-10-10T10:06:13;18.60;63.90
9919;DHT22;4998;51.024;13.828;2022-10-10T10:08:41;18.60;63.30
9919;DHT22;4998;51.024;13.828;2022-10-10T10:11:25;18.70;63.30
9919;DHT22;4998;51.024;13.828;2022-10-10T10:13:54;18.80;63.10
9919;DHT22;4998;51.024;13.828;2022-10-10T10:16:30;18.90;62.70
9919;DHT22;4998;51.024;13.828;2022-10-10T10:18:58;18.90;62.60
9919;DHT22;4998;51.024;13.828;2022-10-10T10:21:27;19.00;62.20
9919;DHT22;4998;51.024;13.828;2022-10-10T10:23:56;19.00;61.80
9919;DHT22;4998;51.024;13.828;2022-10-10T10:26:25;19.00;61.10
9919;DHT22;4998;51.024;13.828;2022-10-10T10:28:55;19.00;61.50
9919;DHT22;4998;51.024;13.828;2022-10-10T10:31:43;19.00;61.40
9919;DHT22;4998;51.024;13.828;2022-10-10T10:34:35;19.00;61.10
9919;DHT22;4998;51.024;13.828;2022-10-10T10:37:19;19.10;61.40
9919;DHT22;4998;51.024;13.828;2022-10-10T10:40:10;19.10;61.30
9919;DHT22;4998;51.024;13.828;2022-10-10T10:42:53;19.10;61.20
9919;DHT22;4998;51.024;13.828;2022-10-10T10:45:29;19.20;61.30
9919;DHT22;4998;51.024;13.828;2022-10-10T10:48:07;19.20;61.10
9919;DHT22;4998;51.024;13.828;2022-10-10T10:50:43;19.20;60.80
9919;DHT22;4998;51.024;13.828;2022-10-10T10:53:20;19.20;60.60
9919;DHT22;4998;51.024;13.828;2022-10-10T10:55:56;19.20;60.40
9919;DHT22;4998;51.024;13.828;2022-10-10T10:58:49;19.30;60.60
9919;DHT22;4998;51.024;13.828;2022-10-10T11:01:24;19.30;60.60
9919;DHT22;4998;51.024;13.828;2022-10-10T11:03:58;19.30;60.60
9919;DHT22;4998;51.024;13.828;2022-10-10T11:06:44;19.30;60.70
9919;DHT22;4998;51.024;13.828;2022-10-10T11:09:19;19.30;60.40
9919;DHT22;4998;51.024;13.828;2022-10-10T11:12:03;19.30;60.50
9919;DHT22;4998;51.024;13.828;2022-10-10T11:14:48;19.30;60.60
9919;DHT22;4998;51.024;13.828;2022-10-10T11:17:20;19.30;60.60
9919;DHT22;4998;51.024;13.828;2022-10-10T11:19:54;19.30;60.60
9919;DHT22;4998;51.024;13.828;2022-10-10T11:22:25;19.30;60.50
9919;DHT22;4998;51.024;13.828;2022-10-10T11:24:59;19.40;60.60
9919;DHT22;4998;51.024;13.828;2022-10-10T11:27:31;19.30;60.20
9919;DHT22;4998;51.024;13.828;2022-10-10T11:30:06;19.40;60.40
9919;DHT22;4998;51.024;13.828;2022-10-10T11:32:38;19.40;60.40
9919;DHT22;4998;51.024;13.828;2022-10-10T11:35:36;19.40;60.30
9919;DHT22;4998;51.024;13.828;2022-10-10T11:38:13;19.40;60.40
9919;DHT22;4998;51.024;13.828;2022-10-10T11:40:51;19.40;60.40
9919;DHT22;4998;51.024;13.828;2022-10-10T11:43:27;19.40;60.60
9919;DHT22;4998;51.024;13.828;2022-10-10T11:46:00;19.40;60.70
9919;DHT22;4998;51.024;13.828;2022-10-10T11:48:36;19.40;60.60
9919;DHT22;4998;51.024;13.828;2022-10-10T11:51:17;19.50;60.50
9919;DHT22;4998;51.024;13.828;2022-10-10T11:53:46;19.50;60.50
9919;DHT22;4998;51.024;13.828;2022-10-10T11:56:24;19.50;60.50
9919;DHT22;4998;51.024;13.828;2022-10-10T11:58:55;19.60;60.40
9919;DHT22;4998;51.024;13.828;2022-10-10T12:01:27;19.60;60.50
9919;DHT22;4998;51.024;13.828;2022-10-10T12:03:55;19.60;60.50
9919;DHT22;4998;51.024;13.828;2022-10-10T12:06:25;19.60;60.40
9919;DHT22;4998;51.024;13.828;2022-10-10T12:08:57;19.70;60.40
9919;DHT22;4998;51.024;13.828;2022-10-10T12:11:31;19.70;60.30
9919;DHT22;4998;51.024;13.828;2022-10-10T12:14:01;19.70;60.20
9919;DHT22;4998;51.024;13.828;2022-10-10T12:16:30;19.80;60.40
9919;DHT22;4998;51.024;13.828;2022-10-10T12:19:02;19.80;60.30
9919;DHT22;4998;51.024;13.828;2022-10-10T12:21:31;19.80;60.30
9919;DHT22;4998;51.024;13.828;2022-10-10T12:24:07;19.90;60.40
9919;DHT22;4998;51.024;13.828;2022-10-10T12:29:42;19.80;60.20
9919;DHT22;4998;51.024;13.828;2022-10-10T12:32:22;19.90;60.60
9919;DHT22;4998;51.024;13.828;2022-10-10T12:34:57;19.90;60.40
9919;DHT22;4998;51.024;13.828;2022-10-10T12:37:26;20.00;60.40
9919;DHT22;4998;51.024;13.828;2022-10-10T12:40:20;20.00;60.50
9919;DHT22;4998;51.024;13.828;2022-10-10T12:43:19;20.00;60.70
9919;DHT22;4998;51.024;13.828;2022-10-10T12:46:12;20.10;60.60
9919;DHT22;4998;51.024;13.828;2022-10-10T12:48:40;20.20;60.60
9919;DHT22;4998;51.024;13.828;2022-10-10T12:51:17;20.20;60.40
9919;DHT22;4998;51.024;13.828;2022-10-10T12:53:50;20.20;60.00
9919;DHT22;4998;51.024;13.828;2022-10-10T12:56:31;20.30;59.90
9919;DHT22;4998;51.024;13.828;2022-10-10T12:58:59;20.30;59.70
9919;DHT22;4998;51.024;13.828;2022-10-10T13:01:30;20.30;59.90
9919;DHT22;4998;51.024;13.828;2022-10-10T13:03:59;20.30;59.80
9919;DHT22;4998;51.024;13.828;2022-10-10T13:06:31;20.30;59.80
9919;DHT22;4998;51.024;13.828;2022-10-10T13:08:59;20.20;59.50
9919;DHT22;4998;51.024;13.828;2022-10-10T13:11:28;20.20;59.70
9919;DHT22;4998;51.024;13.828;2022-10-10T13:13:56;20.20;59.70
9919;DHT22;4998;51.024;13.828;2022-10-10T13:16:24;20.20;59.80
9919;DHT22;4998;51.024;13.828;2022-10-10T13:18:54;20.20;59.90
9919;DHT22;4998;51.024;13.828;2022-10-10T13:21:23;20.20;59.80
9919;DHT22;4998;51.024;13.828;2022-10-10T13:23:54;20.30;60.00
9919;DHT22;4998;51.024;13.828;2022-10-10T13:26:25;20.20;59.80
9919;DHT22;4998;51.024;13.828;2022-10-10T13:28:55;20.30;60.10
9919;DHT22;4998;51.024;13.828;2022-10-10T13:31:23;20.30;60.00
9919;DHT22;4998;51.024;13.828;2022-10-10T13:33:56;20.30;60.00
9919;DHT22;4998;51.024;13.828;2022-10-10T13:36:27;20.30;59.90
9919;DHT22;4998;51.024;13.828;2022-10-10T13:38:54;20.10;59.80
9919;DHT22;4998;51.024;13.828;2022-10-10T13:41:22;20.40;60.10
9919;DHT22;4998;51.024;13.828;2022-10-10T13:43:50;20.30;60.00
9919;DHT22;4998;51.024;13.828;2022-10-10T13:46:20;20.40;60.10
9919;DHT22;4998;51.024;13.828;2022-10-10T13:48:47;20.40;60.20
9919;DHT22;4998;51.024;13.828;2022-10-10T13:51:17;20.40;60.00
9919;DHT22;4998;51.024;13.828;2022-10-10T13:53:49;20.40;60.10
9919;DHT22;4998;51.024;13.828;2022-10-10T13:56:27;20.40;60.00
9919;DHT22;4998;51.024;13.828;2022-10-10T13:58:56;20.50;60.00
9919;DHT22;4998;51.024;13.828;2022-10-10T14:01:31;20.50;60.10
9919;DHT22;4998;51.024;13.828;2022-10-10T14:04:03;20.50;60.10
9919;DHT22;4998;51.024;13.828;2022-10-10T14:06:33;20.50;60.00
9919;DHT22;4998;51.024;13.828;2022-10-10T14:09:08;20.50;59.80
9919;DHT22;4998;51.024;13.828;2022-10-10T14:11:40;20.60;59.80
9919;DHT22;4998;51.024;13.828;2022-10-10T14:14:14;20.50;59.80
9919;DHT22;4998;51.024;13.828;2022-10-10T14:16:42;20.60;59.90
9919;DHT22;4998;51.024;13.828;2022-10-10T14:19:14;20.60;59.90
9919;DHT22;4998;51.024;13.828;2022-10-10T14:21:44;20.50;59.60
9919;DHT22;4998;51.024;13.828;2022-10-10T14:24:10;20.60;59.70
9919;DHT22;4998;51.024;13.828;2022-10-10T14:26:37;20.60;59.70
9919;DHT22;4998;51.024;13.828;2022-10-10T14:29:07;20.60;59.70
9919;DHT22;4998;51.024;13.828;2022-10-10T14:31:37;20.60;59.50
9919;DHT22;4998;51.024;13.828;2022-10-10T14:34:04;20.60;59.50
9919;DHT22;4998;51.024;13.828;2022-10-10T14:36:31;20.60;60.00
9919;DHT22;4998;51.024;13.828;2022-10-10T14:38:59;20.60;59.40
9919;DHT22;4998;51.024;13.828;2022-10-10T14:41:26;20.60;59.40
9919;DHT22;4998;51.024;13.828;2022-10-10T14:43:53;20.50;59.40
9919;DHT22;4998;51.024;13.828;2022-10-10T14:46:20;20.50;59.30
9919;DHT22;4998;51.024;13.828;2022-10-10T14:48:46;20.50;59.30
9919;DHT22;4998;51.024;13.828;2022-10-10T14:51:13;20.50;59.40
9919;DHT22;4998;51.024;13.828;2022-10-10T14:53:40;20.50;59.40
9919;DHT22;4998;51.024;13.828;2022-10-10T14:56:10;20.50;59.50
9919;DHT22;4998;51.024;13.828;2022-10-10T14:58:37;20.40;59.40
9919;DHT22;4998;51.024;13.828;2022-10-10T15:01:04;20.40;59.40
9919;DHT22;4998;51.024;13.828;2022-10-10T15:03:31;20.40;59.40
9919;DHT22;4998;51.024;13.828;2022-10-10T15:05:58;20.40;59.40
9919;DHT22;4998;51.024;13.828;2022-10-10T15:08:25;20.30;59.40
9919;DHT22;4998;51.024;13.828;2022-10-10T15:10:52;20.30;59.40
9919;DHT22;4998;51.024;13.828;2022-10-10T15:13:22;20.30;59.50
9919;DHT22;4998;51.024;13.828;2022-10-10T15:15:49;20.30;59.50
9919;DHT22;4998;51.024;13.828;2022-10-10T15:18:16;20.20;59.50
9919;DHT22;4998;51.024;13.828;2022-10-10T15:20:43;20.30;59.70
9919;DHT22;4998;51.024;13.828;2022-10-10T15:23:11;20.20;59.50
9919;DHT22;4998;51.024;13.828;2022-10-10T15:25:41;20.20;59.70
9919;DHT22;4998;51.024;13.828;2022-10-10T15:28:08;20.20;59.70
9919;DHT22;4998;51.024;13.828;2022-10-10T15:30:37;20.10;59.70
9919;DHT22;4998;51.024;13.828;2022-10-10T15:33:04;20.20;59.80
9919;DHT22;4998;51.024;13.828;2022-10-10T15:35:31;20.10;59.70
9919;DHT22;4998;51.024;13.828;2022-10-10T15:37:58;20.10;59.70
9919;DHT22;4998;51.024;13.828;2022-10-10T15:40:26;20.10;59.80
9919;DHT22;4998;51.024;13.828;2022-10-10T15:42:54;20.10;59.80
9919;DHT22;4998;51.024;13.828;2022-10-10T15:45:21;20.10;59.80
9919;DHT22;4998;51.024;13.828;2022-10-10T15:47:49;20.10;59.80
9919;DHT22;4998;51.024;13.828;2022-10-10T15:50:16;20.10;59.90
9919;DHT22;4998;51.024;13.828;2022-10-10T15:52:43;20.00;59.90
9919;DHT22;4998;51.024;13.828;2022-10-10T15:55:11;20.00;60.00
9919;DHT22;4998;51.024;13.828;2022-10-10T15:57:38;20.00;59.90
9919;DHT22;4998;51.024;13.828;2022-10-10T16:00:06;19.90;59.90
9919;DHT22;4998;51.024;13.828;2022-10-10T16:02:33;19.90;60.00
9919;DHT22;4998;51.024;13.828;2022-10-10T16:05:02;19.90;60.00
9919;DHT22;4998;51.024;13.828;2022-10-10T16:07:28;19.80;60.00
9919;DHT22;4998;51.024;13.828;2022-10-10T16:09:55;19.70;60.00